createdAt,value
2018-03-23T01:41:26.581Z,4.77
2018-03-23T01:41:27.098Z,4.84
2018-03-23T01:41:27.704Z,4.77
2018-03-23T01:41:28.297Z,4.75
2018-03-23T01:41:28.897Z,4.80
2018-03-23T01:41:29.495Z,4.77
2018-03-23T01:41:30.098Z,4.76
2018-03-23T01:42:25.089Z,4.80
2018-03-23T01:42:25.661Z,4.79
2018-03-23T01:42:26.269Z,4.75
2018-03-23T01:42:26.859Z,4.79
2018-03-23T01:42:27.459Z,4.89
2018-03-23T01:42:28.059Z,4.84
2018-03-23T01:42:28.658Z,4.83
2018-03-23T01:42:29.259Z,4.84
2018-03-23T01:43:22.748Z,4.80
2018-03-23T01:43:23.314Z,4.89
2018-03-23T01:43:23.914Z,4.76
2018-03-23T01:43:24.516Z,4.84
2018-03-23T01:43:25.112Z,4.88
2018-03-23T01:43:25.713Z,4.83
2018-03-23T01:43:26.312Z,4.80
2018-03-23T01:43:26.912Z,4.92
2018-03-23T01:44:21.422Z,4.86
2018-03-23T01:44:21.992Z,4.88
2018-03-23T01:44:22.596Z,4.86
2018-03-23T01:44:23.190Z,4.88
2018-03-23T01:44:23.789Z,4.88
2018-03-23T01:44:24.388Z,4.86
2018-03-23T01:44:24.989Z,4.88
2018-03-23T01:44:25.594Z,4.83
2018-03-23T01:45:20.097Z,4.88
2018-03-23T01:45:20.667Z,4.89
2018-03-23T01:45:21.266Z,4.88
2018-03-23T01:45:21.867Z,4.88
2018-03-23T01:45:22.465Z,4.91
2018-03-23T01:45:23.070Z,4.86
2018-03-23T01:45:23.668Z,4.88
2018-03-23T01:45:24.266Z,4.88
2018-03-23T01:46:18.770Z,4.88
2018-03-23T01:46:19.343Z,4.91
2018-03-23T01:46:19.942Z,4.89
2018-03-23T01:46:20.546Z,4.88
2018-03-23T01:46:21.142Z,4.89
2018-03-23T01:46:21.742Z,4.89
2018-03-23T01:46:22.341Z,4.86
2018-03-23T01:46:22.945Z,4.89
2018-03-23T01:47:16.429Z,4.88
2018-03-23T01:47:16.996Z,4.89
2018-03-23T01:47:17.597Z,4.91
2018-03-23T01:47:18.196Z,4.91
2018-03-23T01:47:18.794Z,4.86
2018-03-23T01:47:19.395Z,4.89
2018-03-23T01:47:19.994Z,4.95
2018-03-23T01:47:20.594Z,4.94
2018-03-23T01:48:14.075Z,4.91
2018-03-23T01:48:14.648Z,4.86
2018-03-23T01:48:15.247Z,4.94
2018-03-23T01:48:15.847Z,4.80
2018-03-23T01:48:16.449Z,4.94
2018-03-23T01:48:17.046Z,4.94
2018-03-23T01:48:17.646Z,4.89
2018-03-23T01:48:18.246Z,4.94
2018-03-23T01:49:12.750Z,4.86
2018-03-23T01:49:13.323Z,4.91
2018-03-23T01:49:13.922Z,4.95
2018-03-23T01:49:14.521Z,4.89
2018-03-23T01:49:15.123Z,4.91
2018-03-23T01:49:15.721Z,4.92
2018-03-23T01:49:16.321Z,4.92
2018-03-23T01:49:16.920Z,4.91
2018-03-23T01:50:10.407Z,4.91
2018-03-23T01:50:10.977Z,4.99
2018-03-23T01:50:11.576Z,4.98
2018-03-23T01:50:12.175Z,4.94
2018-03-23T01:50:12.774Z,4.94
2018-03-23T01:50:13.375Z,4.92
2018-03-23T01:50:13.974Z,4.92
2018-03-23T01:50:14.574Z,4.95
2018-03-23T01:51:09.147Z,4.94
2018-03-23T01:51:09.661Z,4.92
2018-03-23T01:51:10.261Z,4.98
2018-03-23T01:51:10.859Z,4.96
2018-03-23T01:51:11.458Z,4.95
2018-03-23T01:51:12.061Z,4.96
2018-03-23T01:51:12.659Z,4.92
2018-03-23T01:51:13.257Z,4.92
2018-03-23T01:52:07.755Z,4.96
2018-03-23T01:52:08.327Z,4.99
2018-03-23T01:52:08.926Z,4.98
2018-03-23T01:52:09.525Z,4.96
2018-03-23T01:52:10.124Z,4.94
2018-03-23T01:52:10.726Z,4.96
2018-03-23T01:52:11.324Z,5.02
2018-03-23T01:52:11.924Z,4.98
2018-03-23T01:53:05.406Z,4.95
2018-03-23T01:53:05.979Z,4.98
2018-03-23T01:53:06.578Z,4.99
2018-03-23T01:53:07.178Z,4.98
2018-03-23T01:53:07.778Z,4.98
2018-03-23T01:53:08.378Z,4.98
2018-03-23T01:53:08.979Z,4.99
2018-03-23T01:53:09.582Z,4.98
2018-03-23T01:54:04.081Z,4.96
2018-03-23T01:54:04.654Z,4.98
2018-03-23T01:54:05.254Z,5.04
2018-03-23T01:54:05.860Z,5.02
2018-03-23T01:54:06.456Z,4.95
2018-03-23T01:54:07.052Z,5.07
2018-03-23T01:54:07.653Z,5.02
2018-03-23T01:54:08.251Z,5.01
2018-03-23T01:55:02.760Z,4.94
2018-03-23T01:55:03.333Z,5.07
2018-03-23T01:55:03.930Z,5.04
2018-03-23T01:55:04.529Z,5.04
2018-03-23T01:55:05.129Z,5.05
2018-03-23T01:55:05.729Z,5.04
2018-03-23T01:55:06.328Z,5.01
2018-03-23T01:55:06.929Z,5.04
2018-03-23T01:56:00.415Z,4.95
2018-03-23T01:56:00.982Z,5.07
2018-03-23T01:56:01.581Z,5.17
2018-03-23T01:56:02.182Z,5.13
2018-03-23T01:56:02.781Z,5.20
2018-03-23T01:56:03.381Z,5.14
2018-03-23T01:56:03.982Z,5.05
2018-03-23T01:56:04.580Z,5.12
2018-03-23T01:56:58.068Z,5.10
2018-03-23T01:56:58.633Z,5.02
2018-03-23T01:56:59.235Z,5.02
2018-03-23T01:56:59.833Z,5.04
2018-03-23T01:57:00.432Z,5.19
2018-03-23T01:57:01.033Z,5.04
2018-03-23T01:57:01.633Z,5.13
2018-03-23T01:57:02.233Z,5.14
2018-03-23T01:57:56.736Z,5.13
2018-03-23T01:57:57.308Z,5.17
2018-03-23T01:57:57.909Z,5.10
2018-03-23T01:57:58.509Z,5.04
2018-03-23T01:57:59.110Z,4.99
2018-03-23T01:57:59.709Z,5.10
2018-03-23T01:58:00.308Z,5.12
2018-03-23T01:58:00.908Z,5.17
2018-03-23T01:58:54.391Z,5.16
2018-03-23T01:58:54.961Z,5.19
2018-03-23T01:58:55.561Z,5.14
2018-03-23T01:58:56.166Z,5.14
2018-03-23T01:58:56.759Z,5.07
2018-03-23T01:58:57.360Z,5.13
2018-03-23T01:58:57.963Z,5.12
2018-03-23T01:58:58.563Z,5.12
2018-03-23T01:59:53.065Z,5.16
2018-03-23T01:59:53.637Z,5.16
2018-03-23T01:59:54.237Z,5.13
2018-03-23T01:59:54.836Z,5.16
2018-03-23T01:59:55.435Z,5.23
2018-03-23T01:59:56.036Z,5.20
2018-03-23T01:59:56.639Z,5.20
2018-03-23T01:59:57.236Z,5.20
2018-03-23T02:00:51.740Z,5.19
2018-03-23T02:00:52.312Z,5.23
2018-03-23T02:00:52.912Z,5.19
2018-03-23T02:00:53.512Z,5.22
2018-03-23T02:00:54.111Z,5.20
2018-03-23T02:00:54.718Z,5.19
2018-03-23T02:00:55.313Z,5.25
2018-03-23T02:00:55.911Z,5.22
2018-03-23T02:01:49.392Z,5.19
2018-03-23T02:01:49.964Z,5.23
2018-03-23T02:01:50.564Z,5.14
2018-03-23T02:01:51.164Z,5.25
2018-03-23T02:01:51.772Z,5.22
2018-03-23T02:01:52.363Z,5.23
2018-03-23T02:01:52.963Z,5.22
2018-03-23T02:01:53.564Z,5.22
2018-03-23T02:02:48.073Z,5.13
2018-03-23T02:02:48.641Z,5.28
2018-03-23T02:02:49.240Z,5.28
2018-03-23T02:02:49.842Z,5.25
2018-03-23T02:02:50.444Z,5.25
2018-03-23T02:02:51.041Z,5.22
2018-03-23T02:02:51.641Z,5.22
2018-03-23T02:02:52.243Z,5.30
2018-03-23T02:03:45.726Z,5.31
2018-03-23T02:03:46.295Z,5.35
2018-03-23T02:03:46.897Z,5.30
2018-03-23T02:03:47.501Z,5.32
2018-03-23T02:03:48.095Z,5.25
2018-03-23T02:03:48.699Z,5.31
2018-03-23T02:03:49.292Z,5.32
2018-03-23T02:03:49.893Z,5.32
2018-03-23T02:04:43.378Z,5.28
2018-03-23T02:04:43.946Z,5.35
2018-03-23T02:04:44.546Z,5.28
2018-03-23T02:04:45.144Z,5.32
2018-03-23T02:04:45.785Z,5.31
2018-03-23T02:04:46.349Z,5.40
2018-03-23T02:04:46.944Z,5.30
2018-03-23T02:04:47.541Z,5.28
2018-03-23T02:05:41.030Z,5.30
2018-03-23T02:05:41.598Z,5.22
2018-03-23T02:05:42.197Z,5.31
2018-03-23T02:05:42.799Z,5.31
2018-03-23T02:05:43.398Z,5.31
2018-03-23T02:05:43.997Z,5.31
2018-03-23T02:05:44.596Z,5.28
2018-03-23T02:05:45.196Z,5.34
2018-03-23T02:06:39.715Z,5.37
2018-03-23T02:06:40.273Z,5.37
2018-03-23T02:06:40.873Z,5.38
2018-03-23T02:06:41.472Z,5.32
2018-03-23T02:06:42.076Z,5.34
2018-03-23T02:06:42.672Z,5.37
2018-03-23T02:06:43.272Z,5.43
2018-03-23T02:06:43.872Z,5.28
2018-03-23T02:07:37.356Z,5.32
2018-03-23T02:07:37.926Z,5.43
2018-03-23T02:07:38.531Z,5.38
2018-03-23T02:07:39.125Z,5.32
2018-03-23T02:07:39.727Z,5.37
2018-03-23T02:07:40.326Z,5.37
2018-03-23T02:07:40.925Z,5.40
2018-03-23T02:07:41.524Z,5.40
2018-03-23T02:08:35.010Z,5.38
2018-03-23T02:08:35.577Z,5.40
2018-03-23T02:08:36.176Z,5.40
2018-03-23T02:08:36.776Z,5.34
2018-03-23T02:08:37.378Z,5.41
2018-03-23T02:08:37.976Z,5.37
2018-03-23T02:08:38.577Z,5.41
2018-03-23T02:08:39.176Z,5.38
2018-03-23T02:09:33.686Z,5.37
2018-03-23T02:09:34.251Z,5.38
2018-03-23T02:09:34.851Z,5.35
2018-03-23T02:09:35.457Z,5.50
2018-03-23T02:09:36.059Z,5.40
2018-03-23T02:09:36.650Z,5.48
2018-03-23T02:09:37.251Z,5.46
2018-03-23T02:09:37.850Z,5.49
2018-03-23T02:10:31.335Z,5.43
2018-03-23T02:10:31.904Z,5.45
2018-03-23T02:10:32.503Z,5.45
2018-03-23T02:10:33.103Z,5.43
2018-03-23T02:10:33.707Z,5.45
2018-03-23T02:10:34.305Z,5.40
2018-03-23T02:10:34.904Z,5.55
2018-03-23T02:10:35.503Z,5.45
2018-03-23T02:11:28.988Z,5.45
2018-03-23T02:11:29.557Z,5.37
2018-03-23T02:11:30.155Z,5.45
2018-03-23T02:11:30.758Z,5.48
2018-03-23T02:11:31.357Z,5.40
2018-03-23T02:11:31.955Z,5.45
2018-03-23T02:11:32.556Z,5.50
2018-03-23T02:11:33.156Z,5.49
2018-03-23T02:12:26.640Z,5.52
2018-03-23T02:12:27.209Z,5.46
2018-03-23T02:12:27.810Z,5.49
2018-03-23T02:12:28.409Z,5.50
2018-03-23T02:12:29.010Z,5.53
2018-03-23T02:12:29.608Z,5.53
2018-03-23T02:12:30.208Z,5.50
2018-03-23T02:12:30.808Z,5.55
2018-03-23T02:13:24.292Z,5.48
2018-03-23T02:13:24.860Z,5.53
2018-03-23T02:13:25.458Z,5.52
2018-03-23T02:13:26.059Z,5.48
2018-03-23T02:13:26.659Z,5.52
2018-03-23T02:13:27.259Z,5.52
2018-03-23T02:13:27.860Z,5.52
2018-03-23T02:13:28.458Z,5.50
2018-03-23T02:14:21.941Z,5.52
2018-03-23T02:14:22.511Z,5.53
2018-03-23T02:14:23.112Z,5.50
2018-03-23T02:14:23.723Z,5.50
2018-03-23T02:14:24.312Z,5.50
2018-03-23T02:14:24.914Z,5.43
2018-03-23T02:14:25.533Z,5.45
2018-03-23T02:14:26.108Z,5.48
2018-03-23T02:15:20.615Z,5.48
2018-03-23T02:15:21.186Z,5.59
2018-03-23T02:15:21.785Z,5.49
2018-03-23T02:15:22.389Z,5.59
2018-03-23T02:15:22.987Z,5.59
2018-03-23T02:15:23.585Z,5.52
2018-03-23T02:15:24.184Z,5.55
2018-03-23T02:15:24.792Z,5.50
2018-03-23T02:16:18.270Z,5.56
2018-03-23T02:16:18.837Z,5.52
2018-03-23T02:16:19.439Z,5.63
2018-03-23T02:16:20.038Z,5.50
2018-03-23T02:16:20.638Z,5.56
2018-03-23T02:16:21.240Z,5.64
2018-03-23T02:16:21.835Z,5.60
2018-03-23T02:16:22.436Z,5.59
2018-03-23T02:17:16.942Z,5.63
2018-03-23T02:17:17.512Z,5.57
2018-03-23T02:17:18.111Z,5.52
2018-03-23T02:17:18.727Z,5.60
2018-03-23T02:17:19.316Z,5.66
2018-03-23T02:17:19.912Z,5.57
2018-03-23T02:17:20.511Z,5.57
2018-03-23T02:17:21.111Z,5.64
2018-03-23T02:18:15.619Z,5.63
2018-03-23T02:18:16.190Z,5.73
2018-03-23T02:18:16.788Z,5.63
2018-03-23T02:18:17.388Z,5.74
2018-03-23T02:18:17.990Z,5.63
2018-03-23T02:18:18.588Z,5.66
2018-03-23T02:18:19.188Z,5.66
2018-03-23T02:18:19.786Z,5.71
2018-03-23T02:19:13.272Z,5.74
2018-03-23T02:19:13.842Z,5.73
2018-03-23T02:19:14.442Z,5.75
2018-03-23T02:19:15.042Z,5.63
2018-03-23T02:19:15.643Z,5.73
2018-03-23T02:19:16.240Z,5.75
2018-03-23T02:19:16.841Z,5.66
2018-03-23T02:19:17.439Z,5.66
2018-03-23T02:20:11.946Z,5.71
2018-03-23T02:20:12.517Z,5.71
2018-03-23T02:20:13.116Z,5.68
2018-03-23T02:20:13.716Z,5.81
2018-03-23T02:20:14.317Z,5.66
2018-03-23T02:20:14.916Z,5.75
2018-03-23T02:20:15.515Z,5.67
2018-03-23T02:20:16.115Z,5.78
2018-03-23T02:21:10.623Z,5.75
2018-03-23T02:21:11.193Z,5.67
2018-03-23T02:21:11.792Z,5.74
2018-03-23T02:21:12.402Z,5.74
2018-03-23T02:21:12.992Z,5.67
2018-03-23T02:21:13.592Z,5.74
2018-03-23T02:21:14.193Z,5.66
2018-03-23T02:21:14.791Z,5.73
2018-03-23T02:22:08.279Z,5.75
2018-03-23T02:22:08.846Z,5.74
2018-03-23T02:22:09.443Z,5.74
2018-03-23T02:22:10.044Z,5.78
2018-03-23T02:22:10.656Z,5.75
2018-03-23T02:22:11.243Z,5.77
2018-03-23T02:22:11.854Z,5.70
2018-03-23T02:22:12.443Z,5.74
2018-03-23T02:23:05.931Z,5.74
2018-03-23T02:23:06.496Z,5.82
2018-03-23T02:23:07.096Z,5.71
2018-03-23T02:23:07.700Z,5.71
2018-03-23T02:23:08.297Z,5.68
2018-03-23T02:23:08.893Z,5.74
2018-03-23T02:23:09.494Z,5.74
2018-03-23T02:23:10.094Z,5.82
2018-03-23T02:24:04.601Z,5.71
2018-03-23T02:24:05.171Z,5.70
2018-03-23T02:24:05.776Z,5.85
2018-03-23T02:24:06.372Z,5.70
2018-03-23T02:24:06.971Z,5.75
2018-03-23T02:24:07.571Z,5.73
2018-03-23T02:24:08.169Z,5.73
2018-03-23T02:24:08.769Z,5.71
2018-03-23T02:25:03.277Z,5.70
2018-03-23T02:25:03.846Z,5.67
2018-03-23T02:25:04.446Z,5.68
2018-03-23T02:25:05.047Z,5.67
2018-03-23T02:25:05.651Z,5.67
2018-03-23T02:25:06.247Z,5.68
2018-03-23T02:25:06.847Z,5.81
2018-03-23T02:25:07.446Z,5.59
2018-03-23T02:26:01.953Z,5.74
2018-03-23T02:26:02.522Z,5.74
2018-03-23T02:26:03.123Z,5.74
2018-03-23T02:26:03.722Z,5.73
2018-03-23T02:26:04.323Z,5.81
2018-03-23T02:26:04.921Z,5.75
2018-03-23T02:26:05.523Z,5.71
2018-03-23T02:26:06.133Z,5.81
2018-03-23T02:26:59.607Z,5.78
2018-03-23T02:27:00.175Z,5.74
2018-03-23T02:27:00.774Z,5.74
2018-03-23T02:27:01.389Z,5.70
2018-03-23T02:27:01.977Z,5.77
2018-03-23T02:27:02.574Z,5.74
2018-03-23T02:27:03.174Z,5.85
2018-03-23T02:27:03.774Z,5.70
2018-03-23T02:27:58.280Z,5.82
2018-03-23T02:27:58.850Z,5.82
2018-03-23T02:27:59.449Z,5.77
2018-03-23T02:28:00.050Z,5.77
2018-03-23T02:28:00.650Z,5.85
2018-03-23T02:28:01.249Z,5.77
2018-03-23T02:28:01.851Z,5.78
2018-03-23T02:28:02.450Z,5.83
2018-03-23T02:28:56.956Z,5.78
2018-03-23T02:28:57.525Z,5.86
2018-03-23T02:28:58.128Z,5.88
2018-03-23T02:28:58.737Z,5.83
2018-03-23T02:28:59.326Z,5.88
2018-03-23T02:28:59.925Z,5.82
2018-03-23T02:29:00.525Z,5.86
2018-03-23T02:29:01.123Z,5.88
2018-03-23T02:29:54.609Z,5.85
2018-03-23T02:29:55.177Z,5.89
2018-03-23T02:29:55.777Z,5.85
2018-03-23T02:29:56.376Z,5.81
2018-03-23T02:29:56.982Z,5.91
2018-03-23T02:29:57.576Z,5.86
2018-03-23T02:29:58.177Z,5.91
2018-03-23T02:29:58.781Z,5.88
2018-03-23T02:30:52.263Z,5.86
2018-03-23T02:30:52.830Z,5.86
2018-03-23T02:30:53.432Z,5.88
2018-03-23T02:30:54.030Z,5.91
2018-03-23T02:30:54.631Z,5.85
2018-03-23T02:30:55.230Z,5.88
2018-03-23T02:30:55.830Z,5.82
2018-03-23T02:30:56.428Z,5.91
2018-03-23T02:31:49.915Z,5.85
2018-03-23T02:31:50.482Z,5.86
2018-03-23T02:31:51.082Z,6.03
2018-03-23T02:31:51.681Z,6.01
2018-03-23T02:31:52.286Z,5.91
2018-03-23T02:31:52.881Z,5.95
2018-03-23T02:31:53.481Z,5.91
2018-03-23T02:31:54.080Z,5.92
2018-03-23T02:32:48.586Z,5.88
2018-03-23T02:32:49.156Z,6.00
2018-03-23T02:32:49.756Z,5.96
2018-03-23T02:32:50.355Z,5.85
2018-03-23T02:32:50.958Z,5.89
2018-03-23T02:32:51.555Z,5.96
2018-03-23T02:32:52.156Z,5.91
2018-03-23T02:32:52.756Z,5.86
2018-03-23T02:33:47.262Z,5.86
2018-03-23T02:33:47.836Z,5.93
2018-03-23T02:33:48.433Z,6.01
2018-03-23T02:33:49.031Z,5.96
2018-03-23T02:33:49.641Z,5.92
2018-03-23T02:33:50.231Z,5.95
2018-03-23T02:33:50.846Z,5.88
2018-03-23T02:33:51.430Z,5.88
2018-03-23T02:34:44.917Z,6.03
2018-03-23T02:34:45.486Z,5.96
2018-03-23T02:34:46.084Z,5.92
2018-03-23T02:34:46.683Z,5.98
2018-03-23T02:34:47.284Z,5.96
2018-03-23T02:34:47.884Z,5.96
2018-03-23T02:34:48.484Z,5.95
2018-03-23T02:34:49.083Z,5.93
2018-03-23T02:35:42.583Z,5.93
2018-03-23T02:35:43.135Z,6.01
2018-03-23T02:35:43.736Z,5.93
2018-03-23T02:35:44.337Z,5.98
2018-03-23T02:35:44.936Z,5.96
2018-03-23T02:35:45.535Z,5.92
2018-03-23T02:35:46.137Z,6.01
2018-03-23T02:35:46.737Z,5.91
2018-03-23T02:36:41.241Z,5.96
2018-03-23T02:36:41.810Z,6.01
2018-03-23T02:36:42.412Z,6.06
2018-03-23T02:36:43.011Z,6.06
2018-03-23T02:36:43.611Z,6.06
2018-03-23T02:36:44.217Z,6.04
2018-03-23T02:36:44.815Z,6.03
2018-03-23T02:36:45.409Z,6.01
2018-03-23T02:37:38.895Z,5.92
2018-03-23T02:37:39.464Z,6.03
2018-03-23T02:37:40.063Z,6.06
2018-03-23T02:37:40.663Z,6.10
2018-03-23T02:37:41.265Z,6.09
2018-03-23T02:37:41.863Z,6.06
2018-03-23T02:37:42.464Z,6.01
2018-03-23T02:37:43.062Z,6.07
2018-03-23T02:38:37.568Z,6.09
2018-03-23T02:38:38.138Z,6.07
2018-03-23T02:38:38.740Z,6.04
2018-03-23T02:38:39.340Z,6.09
2018-03-23T02:38:39.941Z,6.09
2018-03-23T02:38:40.537Z,6.06
2018-03-23T02:38:41.138Z,6.03
2018-03-23T02:38:41.739Z,6.09
2018-03-23T02:56:27.346Z,5.77
2018-03-23T02:56:27.921Z,5.78
2018-03-23T02:56:28.517Z,5.85
2018-03-23T02:56:29.126Z,5.78
2018-03-23T02:56:29.716Z,5.77
2018-03-23T02:56:30.315Z,5.82
2018-03-23T02:56:30.913Z,5.78
2018-03-23T02:56:31.524Z,5.70
2018-03-23T02:57:26.032Z,5.70
2018-03-23T02:57:26.589Z,5.74
2018-03-23T02:57:27.189Z,5.73
2018-03-23T02:57:27.790Z,5.77
2018-03-23T02:57:28.399Z,5.68
2018-03-23T02:57:28.995Z,5.75
2018-03-23T02:57:29.589Z,5.83
2018-03-23T02:57:30.199Z,5.74
2018-03-23T02:58:23.680Z,5.75
2018-03-23T02:58:24.246Z,5.70
2018-03-23T02:58:24.845Z,5.75
2018-03-23T02:58:25.445Z,5.71
2018-03-23T02:58:26.043Z,5.70
2018-03-23T02:58:26.648Z,5.70
2018-03-23T02:58:27.244Z,5.77
2018-03-23T02:58:27.845Z,5.66
2018-03-23T02:59:22.914Z,5.70
2018-03-23T02:59:23.433Z,5.75
2018-03-23T02:59:24.033Z,5.63
2018-03-23T02:59:24.641Z,5.70
2018-03-23T02:59:25.232Z,5.71
2018-03-23T02:59:25.838Z,5.70
2018-03-23T02:59:26.434Z,5.73
2018-03-23T03:00:20.004Z,5.64
2018-03-23T03:00:20.576Z,5.73
2018-03-23T03:00:21.175Z,5.67
2018-03-23T03:00:21.773Z,5.75
2018-03-23T03:00:22.370Z,5.64
2018-03-23T03:00:22.972Z,5.75
2018-03-23T03:00:23.571Z,5.75
2018-03-23T03:00:24.172Z,5.63
2018-03-23T03:01:17.655Z,5.73
2018-03-23T03:01:18.237Z,5.68
2018-03-23T03:01:18.824Z,5.64
2018-03-23T03:01:19.423Z,5.66
2018-03-23T03:01:20.023Z,5.71
2018-03-23T03:01:20.625Z,5.67
2018-03-23T03:01:21.225Z,5.64
2018-03-23T03:01:21.825Z,5.73
2018-03-23T03:02:15.307Z,5.63
2018-03-23T03:02:15.875Z,5.64
2018-03-23T03:02:16.475Z,5.73
2018-03-23T03:02:17.076Z,5.70
2018-03-23T03:02:17.675Z,5.64
2018-03-23T03:02:18.276Z,5.67
2018-03-23T03:02:18.875Z,5.66
2018-03-23T03:02:19.478Z,5.71
2018-03-23T03:03:12.962Z,5.64
2018-03-23T03:03:13.537Z,5.64
2018-03-23T03:03:14.128Z,5.75
2018-03-23T03:03:14.727Z,5.67
2018-03-23T03:03:15.327Z,5.64
2018-03-23T03:03:15.929Z,5.67
2018-03-23T03:03:16.527Z,5.71
2018-03-23T03:03:17.127Z,5.68
2018-03-23T03:04:11.634Z,5.66
2018-03-23T03:04:12.203Z,5.64
2018-03-23T03:04:12.804Z,5.70
2018-03-23T03:04:13.402Z,5.64
2018-03-23T03:04:14.004Z,5.67
2018-03-23T03:04:14.603Z,5.67
2018-03-23T03:04:15.206Z,5.73
2018-03-23T03:04:15.801Z,5.67
2018-03-23T03:05:09.290Z,5.68
2018-03-23T03:05:09.856Z,5.73
2018-03-23T03:05:10.454Z,5.64
2018-03-23T03:05:11.055Z,5.74
2018-03-23T03:05:11.655Z,5.63
2018-03-23T03:05:12.256Z,5.64
2018-03-23T03:05:12.854Z,5.73
2018-03-23T03:05:13.453Z,5.64
2018-03-23T03:06:07.960Z,5.74
2018-03-23T03:06:08.542Z,5.73
2018-03-23T03:06:09.131Z,5.74
2018-03-23T03:06:09.734Z,5.68
2018-03-23T03:06:10.328Z,5.70
2018-03-23T03:06:10.928Z,5.68
2018-03-23T03:06:11.529Z,5.73
2018-03-23T03:06:12.135Z,5.70
2018-03-23T03:07:06.639Z,5.73
2018-03-23T03:07:07.207Z,5.73
2018-03-23T03:07:07.806Z,5.67
2018-03-23T03:07:08.407Z,5.60
2018-03-23T03:07:09.009Z,5.70
2018-03-23T03:07:09.605Z,5.67
2018-03-23T03:07:10.207Z,5.66
2018-03-23T03:07:10.807Z,5.75
2018-03-23T03:08:05.311Z,5.73
2018-03-23T03:08:05.882Z,5.70
2018-03-23T03:08:06.483Z,5.75
2018-03-23T03:08:07.082Z,5.67
2018-03-23T03:08:07.685Z,5.70
2018-03-23T03:08:08.287Z,5.75
2018-03-23T03:08:08.882Z,5.81
2018-03-23T03:08:09.483Z,5.67
2018-03-23T03:09:03.987Z,5.81
2018-03-23T03:09:04.559Z,5.70
2018-03-23T03:09:05.157Z,5.75
2018-03-23T03:09:05.758Z,5.74
2018-03-23T03:09:06.360Z,5.74
2018-03-23T03:09:06.958Z,5.74
2018-03-23T03:09:07.564Z,5.73
2018-03-23T03:09:08.155Z,5.78
2018-03-23T03:10:02.664Z,5.74
2018-03-23T03:10:03.234Z,5.75
2018-03-23T03:10:03.842Z,5.68
2018-03-23T03:10:04.434Z,5.74
2018-03-23T03:10:05.035Z,5.74
2018-03-23T03:10:05.633Z,5.77
2018-03-23T03:10:06.232Z,5.77
2018-03-23T03:10:06.832Z,5.73
2018-03-23T03:11:01.339Z,5.74
2018-03-23T03:11:01.911Z,5.74
2018-03-23T03:11:02.510Z,5.70
2018-03-23T03:11:03.112Z,5.78
2018-03-23T03:11:03.715Z,5.75
2018-03-23T03:11:04.313Z,5.81
2018-03-23T03:11:04.908Z,5.78
2018-03-23T03:11:05.508Z,5.75
2018-03-23T03:12:00.016Z,5.81
2018-03-23T03:12:00.585Z,5.77
2018-03-23T03:12:01.184Z,5.81
2018-03-23T03:12:01.785Z,5.77
2018-03-23T03:12:02.386Z,5.74
2018-03-23T03:12:02.985Z,5.75
2018-03-23T03:12:03.590Z,5.68
2018-03-23T03:12:04.183Z,5.81
2018-03-23T03:12:57.669Z,5.78
2018-03-23T03:12:58.238Z,5.81
2018-03-23T03:12:58.837Z,5.71
2018-03-23T03:12:59.436Z,5.91
2018-03-23T03:13:00.041Z,5.75
2018-03-23T03:13:00.637Z,5.73
2018-03-23T03:13:01.236Z,5.70
2018-03-23T03:13:01.836Z,5.74
2018-03-23T03:13:56.343Z,5.89
2018-03-23T03:13:56.915Z,5.74
2018-03-23T03:13:57.512Z,5.73
2018-03-23T03:13:58.112Z,5.73
2018-03-23T03:13:58.728Z,5.75
2018-03-23T03:13:59.312Z,5.70
2018-03-23T03:13:59.911Z,5.83
2018-03-23T03:14:00.512Z,5.77
2018-03-23T03:14:55.018Z,5.85
2018-03-23T03:14:55.588Z,5.71
2018-03-23T03:14:56.188Z,5.71
2018-03-23T03:14:56.787Z,5.74
2018-03-23T03:14:57.390Z,5.74
2018-03-23T03:14:57.988Z,5.71
2018-03-23T03:14:58.588Z,5.77
2018-03-23T03:14:59.188Z,5.73
2018-03-23T03:15:53.694Z,5.75
2018-03-23T03:15:54.265Z,5.75
2018-03-23T03:15:54.864Z,5.78
2018-03-23T03:15:55.465Z,5.82
2018-03-23T03:15:56.065Z,5.75
2018-03-23T03:15:56.663Z,5.75
2018-03-23T03:15:57.291Z,5.73
2018-03-23T03:15:57.863Z,5.73
2018-03-23T03:16:52.370Z,5.71
2018-03-23T03:16:52.940Z,5.85
2018-03-23T03:16:53.539Z,5.78
2018-03-23T03:16:54.140Z,5.86
2018-03-23T03:16:54.740Z,5.82
2018-03-23T03:16:55.339Z,5.75
2018-03-23T03:16:55.940Z,5.78
2018-03-23T03:16:56.539Z,5.88
2018-03-23T03:17:50.024Z,5.82
2018-03-23T03:17:50.592Z,5.83
2018-03-23T03:17:51.192Z,5.75
2018-03-23T03:17:51.796Z,5.89
2018-03-23T03:17:52.393Z,5.86
2018-03-23T03:17:52.992Z,5.86
2018-03-23T03:17:53.592Z,5.82
2018-03-23T03:17:54.191Z,5.83
2018-03-23T03:18:47.676Z,5.86
2018-03-23T03:18:48.245Z,5.78
2018-03-23T03:18:48.843Z,5.83
2018-03-23T03:18:49.444Z,5.85
2018-03-23T03:18:50.046Z,5.86
2018-03-23T03:18:50.642Z,5.86
2018-03-23T03:18:51.244Z,5.86
2018-03-23T03:18:51.843Z,5.88
2018-03-23T03:19:45.328Z,5.89
2018-03-23T03:19:45.897Z,5.92
2018-03-23T03:19:46.496Z,5.95
2018-03-23T03:19:47.100Z,5.89
2018-03-23T03:19:47.696Z,5.88
2018-03-23T03:19:48.294Z,6.01
2018-03-23T03:19:48.897Z,5.88
2018-03-23T03:19:49.495Z,5.89
2018-03-23T03:20:42.981Z,5.96
2018-03-23T03:20:43.546Z,5.96
2018-03-23T03:20:44.148Z,5.96
2018-03-23T03:20:44.747Z,5.96
2018-03-23T03:20:45.348Z,6.00
2018-03-23T03:20:45.952Z,6.03
2018-03-23T03:20:46.548Z,6.03
2018-03-23T03:20:47.146Z,5.98
2018-03-23T03:21:41.652Z,5.98
2018-03-23T03:21:42.222Z,5.98
2018-03-23T03:21:42.822Z,6.03
2018-03-23T03:21:43.423Z,5.96
2018-03-23T03:21:44.024Z,5.98
2018-03-23T03:21:44.621Z,5.93
2018-03-23T03:21:45.223Z,5.96
2018-03-23T03:21:45.821Z,5.92
2018-03-23T03:22:40.327Z,6.01
2018-03-23T03:22:40.902Z,6.03
2018-03-23T03:22:41.500Z,5.96
2018-03-23T03:22:42.096Z,6.00
2018-03-23T03:22:42.700Z,6.01
2018-03-23T03:22:43.297Z,5.95
2018-03-23T03:22:43.896Z,5.93
2018-03-23T03:22:44.498Z,5.98
2018-03-23T03:23:39.007Z,5.98
2018-03-23T03:23:39.573Z,6.01
2018-03-23T03:23:40.178Z,5.93
2018-03-23T03:23:40.773Z,6.06
2018-03-23T03:23:41.375Z,6.06
2018-03-23T03:23:41.972Z,5.96
2018-03-23T03:23:42.585Z,5.98
2018-03-23T03:23:43.173Z,6.01
2018-03-23T03:24:37.680Z,6.03
2018-03-23T03:24:38.249Z,6.06
2018-03-23T03:24:38.849Z,6.03
2018-03-23T03:24:39.449Z,6.03
2018-03-23T03:24:40.050Z,6.04
2018-03-23T03:24:40.647Z,6.03
2018-03-23T03:24:41.255Z,6.04
2018-03-23T03:24:41.847Z,6.01
2018-03-23T03:25:35.334Z,6.04
2018-03-23T03:25:35.901Z,6.06
2018-03-23T03:25:36.500Z,6.04
2018-03-23T03:25:37.101Z,6.06
2018-03-23T03:25:37.704Z,6.06
2018-03-23T03:25:38.301Z,6.03
2018-03-23T03:25:38.904Z,6.09
2018-03-23T03:25:39.498Z,6.04
2018-03-23T03:26:34.007Z,6.01
2018-03-23T03:26:34.576Z,6.01
2018-03-23T03:26:35.176Z,6.03
2018-03-23T03:26:35.776Z,6.09
2018-03-23T03:26:36.402Z,6.04
2018-03-23T03:26:36.975Z,6.07
2018-03-23T03:26:37.575Z,6.01
2018-03-23T03:26:38.173Z,6.03
2018-03-23T03:27:32.682Z,6.01
2018-03-23T03:27:33.253Z,6.07
2018-03-23T03:27:33.854Z,6.01
2018-03-23T03:27:34.450Z,6.06
2018-03-23T03:27:35.054Z,6.06
2018-03-23T03:27:35.650Z,6.04
2018-03-23T03:27:36.250Z,6.09
2018-03-23T03:27:36.849Z,6.03
2018-03-23T03:28:30.338Z,6.04
2018-03-23T03:28:30.905Z,6.04
2018-03-23T03:28:31.505Z,6.06
2018-03-23T03:28:32.104Z,6.04
2018-03-23T03:28:32.705Z,6.06
2018-03-23T03:28:33.303Z,6.03
2018-03-23T03:28:33.904Z,6.06
2018-03-23T03:28:34.503Z,6.06
2018-03-23T03:29:27.990Z,6.07
2018-03-23T03:29:28.568Z,6.04
2018-03-23T03:29:29.156Z,6.06
2018-03-23T03:29:29.756Z,6.04
2018-03-23T03:29:30.357Z,6.06
2018-03-23T03:29:30.955Z,6.03
2018-03-23T03:29:31.556Z,6.04
2018-03-23T03:29:32.155Z,6.09
2018-03-23T03:30:25.642Z,6.10
2018-03-23T03:30:26.209Z,6.07
2018-03-23T03:30:26.810Z,6.09
2018-03-23T03:30:27.409Z,6.04
2018-03-23T03:30:28.021Z,6.03
2018-03-23T03:30:28.608Z,6.06
2018-03-23T03:30:29.208Z,6.06
2018-03-23T03:30:29.809Z,6.07
2018-03-23T03:31:24.314Z,6.07
2018-03-23T03:31:24.884Z,6.13
2018-03-23T03:31:25.488Z,6.04
2018-03-23T03:31:26.083Z,6.06
2018-03-23T03:31:26.685Z,6.03
2018-03-23T03:31:27.292Z,6.10
2018-03-23T03:31:27.892Z,6.11
2018-03-23T03:31:28.484Z,6.09
2018-03-23T03:32:21.968Z,6.09
2018-03-23T03:32:22.535Z,6.14
2018-03-23T03:32:23.134Z,6.06
2018-03-23T03:32:23.735Z,6.07
2018-03-23T03:32:24.337Z,6.13
2018-03-23T03:32:24.934Z,6.07
2018-03-23T03:32:25.535Z,6.06
2018-03-23T03:32:26.137Z,6.00
2018-03-23T03:33:20.642Z,6.10
2018-03-23T03:33:21.211Z,6.11
2018-03-23T03:33:21.810Z,6.09
2018-03-23T03:33:22.409Z,6.09
2018-03-23T03:33:23.010Z,6.07
2018-03-23T03:33:23.610Z,6.16
2018-03-23T03:33:24.211Z,6.04
2018-03-23T03:33:24.809Z,6.10
2018-03-23T03:34:19.318Z,6.13
2018-03-23T03:34:19.886Z,6.16
2018-03-23T03:34:20.486Z,6.14
2018-03-23T03:34:21.088Z,6.14
2018-03-23T03:34:21.687Z,6.18
2018-03-23T03:34:22.285Z,6.21
2018-03-23T03:34:22.886Z,6.16
2018-03-23T03:34:23.490Z,6.16
2018-03-23T03:35:16.971Z,6.18